Jard Avila, Puerto Rico
Current Conditions -  °F | °C
As of 9:53 AM on Thursday 18 Dec 2014 (Local Time) from TJNR Reporting Station
Scattered Clouds Scattered Clouds  
Wind Chill: 82°   Ceiling: Unl
Heat Index: 85°   Visibility: 10mi
Dew Point: 69°   Wind: 14mph
Humidity: 65%   Direction: 20°NNE
Pressure: 30.08"   Gusts: 24mph
Location:  18.2667°N, 65.6476°W
Report Text: TJNR 181353Z AUTO 02012G21KT 10SM FEW030 SCT085 28/21 A3008 RMK AO2 SLP186 T02780206 $
Loading
Personal Weather Stations






























Interactive Weather Map New forecast layout! Learn more

10-Day Weather Forecast

Advertisements
Track Severe Weather on mobile